sensor_id;sensor_type;location;lat;lon;timestamp;pressure;altitude;pressure_sealevel;temperature;humidity
71857;BME280;63344;46.980;28.882;2023-01-31T00:01:34;99990.91;;;-2.76;85.19
71857;BME280;63344;46.980;28.882;2023-01-31T00:04:08;99990.06;;;-2.73;85.12
71857;BME280;63344;46.980;28.882;2023-01-31T00:06:42;99989.19;;;-2.71;85.59
71857;BME280;63344;46.980;28.882;2023-01-31T00:09:11;99987.50;;;-2.67;85.15
71857;BME280;63344;46.980;28.882;2023-01-31T00:11:39;99990.09;;;-2.64;85.54
71857;BME280;63344;46.980;28.882;2023-01-31T00:14:07;99994.47;;;-2.62;85.16
71857;BME280;63344;46.980;28.882;2023-01-31T00:16:34;99988.38;;;-2.61;85.01
71857;BME280;63344;46.980;28.882;2023-01-31T00:19:03;99992.69;;;-2.67;85.24
71857;BME280;63344;46.980;28.882;2023-01-31T00:21:31;99990.94;;;-2.67;85.03
71857;BME280;63344;46.980;28.882;2023-01-31T00:23:59;99996.16;;;-2.62;85.13
71857;BME280;63344;46.980;28.882;2023-01-31T00:26:29;100002.22;;;-2.66;84.92
71857;BME280;63344;46.980;28.882;2023-01-31T00:29:01;99992.69;;;-2.64;85.05
71857;BME280;63344;46.980;28.882;2023-01-31T00:31:30;99991.81;;;-2.68;85.07
71857;BME280;63344;46.980;28.882;2023-01-31T00:33:58;99992.69;;;-2.67;84.98
71857;BME280;63344;46.980;28.882;2023-01-31T00:36:30;99986.59;;;-2.68;84.60
71857;BME280;63344;46.980;28.882;2023-01-31T00:39:00;99995.28;;;-2.67;84.99
71857;BME280;63344;46.980;28.882;2023-01-31T00:41:28;99980.53;;;-2.70;85.06
71857;BME280;63344;46.980;28.882;2023-01-31T00:43:56;99990.09;;;-2.67;85.05
71857;BME280;63344;46.980;28.882;2023-01-31T00:46:24;99988.34;;;-2.68;84.95
71857;BME280;63344;46.980;28.882;2023-01-31T00:48:52;99983.16;;;-2.67;84.87
71857;BME280;63344;46.980;28.882;2023-01-31T00:51:20;99984.03;;;-2.65;84.94
71857;BME280;63344;46.980;28.882;2023-01-31T00:53:52;99979.69;;;-2.64;85.10
71857;BME280;63344;46.980;28.882;2023-01-31T00:56:22;99976.25;;;-2.60;85.11
71857;BME280;63344;46.980;28.882;2023-01-31T00:58:52;99979.72;;;-2.58;84.83
71857;BME280;63344;46.980;28.882;2023-01-31T01:01:27;99980.59;;;-2.57;84.88
71857;BME280;63344;46.980;28.882;2023-01-31T01:03:56;99967.59;;;-2.61;84.61
71857;BME280;63344;46.980;28.882;2023-01-31T01:06:24;99964.13;;;-2.59;84.96
71857;BME280;63344;46.980;28.882;2023-01-31T01:08:52;99981.50;;;-2.51;84.61
71857;BME280;63344;46.980;28.882;2023-01-31T01:11:22;99973.69;;;-2.51;84.72
71857;BME280;63344;46.980;28.882;2023-01-31T01:13:50;99978.06;;;-2.44;85.13
71857;BME280;63344;46.980;28.882;2023-01-31T01:16:24;99977.19;;;-2.38;84.80
71857;BME280;63344;46.980;28.882;2023-01-31T01:18:54;99970.28;;;-2.33;84.98
71857;BME280;63344;46.980;28.882;2023-01-31T01:21:24;99966.84;;;-2.23;85.10
71857;BME280;63344;46.980;28.882;2023-01-31T01:23:54;99967.72;;;-2.16;84.76
71857;BME280;63344;46.980;28.882;2023-01-31T01:26:27;99968.59;;;-2.08;84.77
71857;BME280;63344;46.980;28.882;2023-01-31T01:28:56;99971.22;;;-2.03;84.54
71857;BME280;63344;46.980;28.882;2023-01-31T01:31:23;99966.03;;;-2.02;84.38
71857;BME280;63344;46.980;28.882;2023-01-31T01:34:05;99978.16;;;-2.01;84.59
71857;BME280;63344;46.980;28.882;2023-01-31T01:36:34;99958.22;;;-2.09;84.53
71857;BME280;63344;46.980;28.882;2023-01-31T01:39:06;99966.03;;;-2.02;84.77
71857;BME280;63344;46.980;28.882;2023-01-31T01:41:35;99963.41;;;-2.00;84.98
71857;BME280;63344;46.980;28.882;2023-01-31T01:47:39;99970.38;;;-1.97;85.20
71857;BME280;63344;46.980;28.882;2023-01-31T01:50:15;99966.03;;;-1.92;85.62
71857;BME280;63344;46.980;28.882;2023-01-31T01:53:15;99968.63;;;-1.86;85.73
71857;BME280;63344;46.980;28.882;2023-01-31T01:55:48;99959.09;;;-1.87;85.90
71857;BME280;63344;46.980;28.882;2023-01-31T01:58:26;99964.31;;;-1.81;85.70
71857;BME280;63344;46.980;28.882;2023-01-31T02:00:56;99953.00;;;-1.80;86.12
71857;BME280;63344;46.980;28.882;2023-01-31T02:03:25;99952.16;;;-1.76;86.30
71857;BME280;63344;46.980;28.882;2023-01-31T02:05:55;99955.63;;;-1.71;86.20
71857;BME280;63344;46.980;28.882;2023-01-31T02:08:26;99949.56;;;-1.68;86.76
71857;BME280;63344;46.980;28.882;2023-01-31T02:11:26;99959.97;;;-1.65;86.80
71857;BME280;63344;46.980;28.882;2023-01-31T02:14:06;99953.91;;;-1.63;86.55
71857;BME280;63344;46.980;28.882;2023-01-31T02:16:35;99944.38;;;-1.64;86.64
71857;BME280;63344;46.980;28.882;2023-01-31T02:19:05;99960.84;;;-1.62;86.42
71857;BME280;63344;46.980;28.882;2023-01-31T02:27:41;99954.75;;;-1.76;86.11
71857;BME280;63344;46.980;28.882;2023-01-31T02:33:09;99958.25;;;-1.82;86.73
71857;BME280;63344;46.980;28.882;2023-01-31T02:38:51;99963.44;;;-1.82;86.83
71857;BME280;63344;46.980;28.882;2023-01-31T02:41:49;99958.25;;;-1.82;87.08
71857;BME280;63344;46.980;28.882;2023-01-31T02:50:28;99953.91;;;-1.81;87.73
71857;BME280;63344;46.980;28.882;2023-01-31T02:58:18;99956.50;;;-1.78;87.82
71857;BME280;63344;46.980;28.882;2023-01-31T03:00:48;99965.19;;;-1.77;87.93
71857;BME280;63344;46.980;28.882;2023-01-31T03:03:22;99967.78;;;-1.79;88.21
71857;BME280;63344;46.980;28.882;2023-01-31T03:08:38;99968.63;;;-1.78;88.05
71857;BME280;63344;46.980;28.882;2023-01-31T03:11:07;99967.78;;;-1.79;88.51
71857;BME280;63344;46.980;28.882;2023-01-31T03:16:28;99963.44;;;-1.82;88.29
71857;BME280;63344;46.980;28.882;2023-01-31T03:19:20;99961.72;;;-1.87;88.42
71857;BME280;63344;46.980;28.882;2023-01-31T03:21:59;99966.03;;;-1.89;89.06
71857;BME280;63344;46.980;28.882;2023-01-31T03:24:29;99955.63;;;-1.89;88.71
71857;BME280;63344;46.980;28.882;2023-01-31T03:26:59;99963.41;;;-1.94;89.27
71857;BME280;63344;46.980;28.882;2023-01-31T03:29:31;99958.22;;;-1.94;89.24
71857;BME280;63344;46.980;28.882;2023-01-31T03:32:23;99967.78;;;-1.91;89.05
71857;BME280;63344;46.980;28.882;2023-01-31T03:34:52;99959.09;;;-1.90;89.39
71857;BME280;63344;46.980;28.882;2023-01-31T03:37:50;99971.22;;;-1.86;89.18
71857;BME280;63344;46.980;28.882;2023-01-31T03:40:30;99972.97;;;-1.85;89.15
71857;BME280;63344;46.980;28.882;2023-01-31T03:45:48;99977.31;;;-1.86;89.55
71857;BME280;63344;46.980;28.882;2023-01-31T03:48:19;99977.31;;;-1.90;89.51
71857;BME280;63344;46.980;28.882;2023-01-31T03:50:52;99979.03;;;-1.86;89.00
71857;BME280;63344;46.980;28.882;2023-01-31T03:56:19;99966.03;;;-1.89;89.50
71857;BME280;63344;46.980;28.882;2023-01-31T03:58:54;99972.97;;;-1.85;89.63
71857;BME280;63344;46.980;28.882;2023-01-31T04:01:25;99975.59;;;-1.85;89.52
71857;BME280;63344;46.980;28.882;2023-01-31T04:03:57;99968.63;;;-1.86;89.54
71857;BME280;63344;46.980;28.882;2023-01-31T04:06:27;99973.84;;;-1.80;89.83
71857;BME280;63344;46.980;28.882;2023-01-31T04:08:54;99964.28;;;-1.84;89.97
71857;BME280;63344;46.980;28.882;2023-01-31T04:11:25;99976.44;;;-1.74;89.64
71857;BME280;63344;46.980;28.882;2023-01-31T04:13:53;99979.94;;;-1.75;89.80
71857;BME280;63344;46.980;28.882;2023-01-31T04:16:20;99979.91;;;-1.72;89.33
71857;BME280;63344;46.980;28.882;2023-01-31T04:18:49;99967.78;;;-1.74;89.66
71857;BME280;63344;46.980;28.882;2023-01-31T04:21:17;99976.47;;;-1.68;89.37
71857;BME280;63344;46.980;28.882;2023-01-31T04:23:45;99973.84;;;-1.71;89.46
71857;BME280;63344;46.980;28.882;2023-01-31T04:26:12;99977.31;;;-1.69;89.64
71857;BME280;63344;46.980;28.882;2023-01-31T04:28:40;99965.19;;;-1.73;89.78
71857;BME280;63344;46.980;28.882;2023-01-31T04:31:07;99973.88;;;-1.68;89.52
71857;BME280;63344;46.980;28.882;2023-01-31T04:33:34;99969.50;;;-1.72;89.61
71857;BME280;63344;46.980;28.882;2023-01-31T04:36:02;99973.88;;;-1.68;89.59
71857;BME280;63344;46.980;28.882;2023-01-31T04:38:32;99973.88;;;-1.69;89.93
71857;BME280;63344;46.980;28.882;2023-01-31T04:40:59;99983.41;;;-1.67;89.55
71857;BME280;63344;46.980;28.882;2023-01-31T04:43:27;99985.13;;;-1.72;89.57
71857;BME280;63344;46.980;28.882;2023-01-31T04:45:54;99975.59;;;-1.71;89.46
71857;BME280;63344;46.980;28.882;2023-01-31T04:48:22;99978.19;;;-1.67;89.60
71857;BME280;63344;46.980;28.882;2023-01-31T04:50:51;99984.25;;;-1.66;89.65
71857;BME280;63344;46.980;28.882;2023-01-31T04:53:18;99979.91;;;-1.64;89.71
71857;BME280;63344;46.980;28.882;2023-01-31T04:55:47;99978.22;;;-1.64;89.67
71857;BME280;63344;46.980;28.882;2023-01-31T04:58:16;99977.34;;;-1.66;90.14
71857;BME280;63344;46.980;28.882;2023-01-31T05:00:43;99981.66;;;-1.65;90.08
71857;BME280;63344;46.980;28.882;2023-01-31T05:03:11;99993.81;;;-1.61;90.00
71857;BME280;63344;46.980;28.882;2023-01-31T05:05:41;99997.28;;;-1.58;90.05
71857;BME280;63344;46.980;28.882;2023-01-31T05:08:27;99995.53;;;-1.56;90.57
71857;BME280;63344;46.980;28.882;2023-01-31T05:10:58;99999.88;;;-1.54;90.01
71857;BME280;63344;46.980;28.882;2023-01-31T05:13:29;99997.28;;;-1.52;89.66
71857;BME280;63344;46.980;28.882;2023-01-31T05:16:08;99997.28;;;-1.51;89.93
71857;BME280;63344;46.980;28.882;2023-01-31T05:18:37;99993.81;;;-1.48;90.24
71857;BME280;63344;46.980;28.882;2023-01-31T05:21:06;99988.59;;;-1.54;90.12
71857;BME280;63344;46.980;28.882;2023-01-31T05:23:34;100011.16;;;-1.44;90.24
71857;BME280;63344;46.980;28.882;2023-01-31T05:26:02;100008.59;;;-1.46;90.23
71857;BME280;63344;46.980;28.882;2023-01-31T05:28:30;100001.63;;;-1.47;90.36
71857;BME280;63344;46.980;28.882;2023-01-31T05:31:04;100008.59;;;-1.39;90.46
71857;BME280;63344;46.980;28.882;2023-01-31T05:33:33;100010.31;;;-1.38;90.17
71857;BME280;63344;46.980;28.882;2023-01-31T05:36:01;100014.66;;;-1.39;89.96
71857;BME280;63344;46.980;28.882;2023-01-31T05:38:28;100018.09;;;-1.34;90.04
71857;BME280;63344;46.980;28.882;2023-01-31T05:41:06;100007.69;;;-1.31;90.18
71857;BME280;63344;46.980;28.882;2023-01-31T05:43:33;100002.47;;;-1.34;89.93
71857;BME280;63344;46.980;28.882;2023-01-31T05:46:05;100022.44;;;-1.22;90.04
71857;BME280;63344;46.980;28.882;2023-01-31T05:48:35;100018.97;;;-1.24;90.04
71857;BME280;63344;46.980;28.882;2023-01-31T05:51:03;100021.59;;;-1.21;89.83
71857;BME280;63344;46.980;28.882;2023-01-31T05:53:30;100029.41;;;-1.15;90.19
71857;BME280;63344;46.980;28.882;2023-01-31T05:55:58;100025.06;;;-1.14;90.01
71857;BME280;63344;46.980;28.882;2023-01-31T05:58:26;100029.41;;;-1.09;89.75
71857;BME280;63344;46.980;28.882;2023-01-31T06:00:56;100031.97;;;-1.04;89.83
71857;BME280;63344;46.980;28.882;2023-01-31T06:03:26;100042.41;;;-0.98;90.04
71857;BME280;63344;46.980;28.882;2023-01-31T06:05:55;100051.94;;;-0.94;89.85
71857;BME280;63344;46.980;28.882;2023-01-31T06:08:23;100051.09;;;-0.94;89.59
71857;BME280;63344;46.980;28.882;2023-01-31T06:10:51;100045.88;;;-0.96;89.53
71857;BME280;63344;46.980;28.882;2023-01-31T06:13:18;100056.28;;;-0.87;89.69
71857;BME280;63344;46.980;28.882;2023-01-31T06:15:49;100045.88;;;-0.90;89.54
71857;BME280;63344;46.980;28.882;2023-01-31T06:18:17;100052.81;;;-0.84;89.64
71857;BME280;63344;46.980;28.882;2023-01-31T06:20:46;100053.69;;;-0.84;89.74
71857;BME280;63344;46.980;28.882;2023-01-31T06:23:15;100046.75;;;-0.82;89.47
71857;BME280;63344;46.980;28.882;2023-01-31T06:25:42;100063.25;;;-0.79;89.60
71857;BME280;63344;46.980;28.882;2023-01-31T06:28:11;100061.50;;;-0.81;89.71
71857;BME280;63344;46.980;28.882;2023-01-31T06:30:39;100048.47;;;-0.79;89.50
71857;BME280;63344;46.980;28.882;2023-01-31T06:33:06;100047.56;;;-0.70;89.52
71857;BME280;63344;46.980;28.882;2023-01-31T06:35:34;100071.00;;;-0.55;89.84
71857;BME280;63344;46.980;28.882;2023-01-31T06:38:01;100060.56;;;-0.55;89.18
71857;BME280;63344;46.980;28.882;2023-01-31T06:40:29;100054.50;;;-0.54;89.28
71857;BME280;63344;46.980;28.882;2023-01-31T06:43:11;100051.91;;;-0.55;88.87
71857;BME280;63344;46.980;28.882;2023-01-31T06:45:41;100047.53;;;-0.55;88.68
71857;BME280;63344;46.980;28.882;2023-01-31T06:48:09;100051.88;;;-0.48;88.92
71857;BME280;63344;46.980;28.882;2023-01-31T06:50:36;100052.72;;;-0.41;88.48
71857;BME280;63344;46.980;28.882;2023-01-31T06:53:04;100060.50;;;-0.29;88.66
71857;BME280;63344;46.980;28.882;2023-01-31T06:55:31;100058.78;;;-0.30;88.15
71857;BME280;63344;46.980;28.882;2023-01-31T06:57:58;100062.22;;;-0.23;88.06
71857;BME280;63344;46.980;28.882;2023-01-31T07:00:26;100063.06;;;-0.21;88.21
71857;BME280;63344;46.980;28.882;2023-01-31T07:02:53;100059.56;;;-0.20;87.55
71857;BME280;63344;46.980;28.882;2023-01-31T07:05:22;100058.69;;;-0.13;87.95
71857;BME280;63344;46.980;28.882;2023-01-31T07:07:50;100060.41;;;-0.09;87.66
71857;BME280;63344;46.980;28.882;2023-01-31T07:10:17;100066.47;;;-0.02;87.83
71857;BME280;63344;46.980;28.882;2023-01-31T07:12:44;100073.41;;;0.08;87.77
71857;BME280;63344;46.980;28.882;2023-01-31T07:15:12;100073.31;;;0.16;87.10
71857;BME280;63344;46.980;28.882;2023-01-31T07:17:39;100069.84;;;0.18;87.33
71857;BME280;63344;46.980;28.882;2023-01-31T07:20:07;100078.50;;;0.24;87.08
71857;BME280;63344;46.980;28.882;2023-01-31T07:22:34;100064.56;;;0.28;87.11
71857;BME280;63344;46.980;28.882;2023-01-31T07:25:02;100077.56;;;0.34;87.10
71857;BME280;63344;46.980;28.882;2023-01-31T07:27:29;100077.53;;;0.42;87.10
71857;BME280;63344;46.980;28.882;2023-01-31T07:30:13;100080.16;;;0.45;87.15
71857;BME280;63344;46.980;28.882;2023-01-31T07:32:41;100071.44;;;0.39;86.76
71857;BME280;63344;46.980;28.882;2023-01-31T07:35:08;100085.38;;;0.42;86.71
71857;BME280;63344;46.980;28.882;2023-01-31T07:37:36;100086.25;;;0.42;86.86
71857;BME280;63344;46.980;28.882;2023-01-31T07:40:04;100073.22;;;0.37;86.43
71857;BME280;63344;46.980;28.882;2023-01-31T07:42:32;100081.03;;;0.36;86.44
71857;BME280;63344;46.980;28.882;2023-01-31T07:44:59;100071.50;;;0.36;86.19
71857;BME280;63344;46.980;28.882;2023-01-31T07:47:46;100088.88;;;0.39;86.42
71857;BME280;63344;46.980;28.882;2023-01-31T07:50:14;100084.56;;;0.36;86.60
71857;BME280;63344;46.980;28.882;2023-01-31T07:52:41;100101.94;;;0.41;86.79
71857;BME280;63344;46.980;28.882;2023-01-31T07:55:08;100087.13;;;0.39;87.02
71857;BME280;63344;46.980;28.882;2023-01-31T07:57:36;100087.16;;;0.36;86.71
71857;BME280;63344;46.980;28.882;2023-01-31T08:00:03;100088.03;;;0.40;86.71
71857;BME280;63344;46.980;28.882;2023-01-31T08:03:18;100101.03;;;0.45;86.97
71857;BME280;63344;46.980;28.882;2023-01-31T08:06:11;100098.38;;;0.51;87.04
71857;BME280;63344;46.980;28.882;2023-01-31T08:08:41;100100.09;;;0.52;86.48
71857;BME280;63344;46.980;28.882;2023-01-31T08:11:36;100094.03;;;0.50;86.25
71857;BME280;63344;46.980;28.882;2023-01-31T08:14:04;100097.44;;;0.61;86.69
71857;BME280;63344;46.980;28.882;2023-01-31T08:16:34;100100.88;;;0.68;86.11
71857;BME280;63344;46.980;28.882;2023-01-31T08:19:09;100104.34;;;0.76;86.05
71857;BME280;63344;46.980;28.882;2023-01-31T08:21:36;100112.03;;;0.90;86.08
71857;BME280;63344;46.980;28.882;2023-01-31T08:24:33;100111.13;;;1.00;86.18
71857;BME280;63344;46.980;28.882;2023-01-31T08:27:02;100111.03;;;1.09;85.91
71857;BME280;63344;46.980;28.882;2023-01-31T08:29:31;100120.56;;;1.16;85.94
71857;BME280;63344;46.980;28.882;2023-01-31T08:32:03;100126.53;;;1.29;85.78
71857;BME280;63344;46.980;28.882;2023-01-31T08:34:37;100112.53;;;1.38;85.65
71857;BME280;63344;46.980;28.882;2023-01-31T08:37:04;100121.09;;;1.51;85.52
71857;BME280;63344;46.980;28.882;2023-01-31T08:39:34;100117.50;;;1.63;85.28
71857;BME280;63344;46.980;28.882;2023-01-31T08:42:02;100123.47;;;1.75;84.48
71857;BME280;63344;46.980;28.882;2023-01-31T08:44:31;100126.81;;;1.90;84.33
71857;BME280;63344;46.980;28.882;2023-01-31T08:47:09;100123.06;;;2.09;84.29
71857;BME280;63344;46.980;28.882;2023-01-31T08:49:36;100123.81;;;2.19;83.64
71857;BME280;63344;46.980;28.882;2023-01-31T08:52:05;100124.44;;;2.39;82.60
71857;BME280;63344;46.980;28.882;2023-01-31T08:54:32;100120.66;;;2.59;82.10
71857;BME280;63344;46.980;28.882;2023-01-31T08:57:14;100118.56;;;2.83;80.74
71857;BME280;63344;46.980;28.882;2023-01-31T08:59:42;100113.97;;;2.97;79.88
71857;BME280;63344;46.980;28.882;2023-01-31T09:02:09;100118.13;;;3.12;79.23
71857;BME280;63344;46.980;28.882;2023-01-31T09:04:37;100123.19;;;3.21;78.55
71857;BME280;63344;46.980;28.882;2023-01-31T09:07:07;100117.81;;;3.30;77.42
71857;BME280;63344;46.980;28.882;2023-01-31T09:09:34;100126.44;;;3.37;75.49
71857;BME280;63344;46.980;28.882;2023-01-31T09:12:03;100115.28;;;3.26;74.27
71857;BME280;63344;46.980;28.882;2023-01-31T09:14:30;100119.63;;;3.27;74.59
71857;BME280;63344;46.980;28.882;2023-01-31T09:16:58;100108.41;;;3.17;73.96
71857;BME280;63344;46.980;28.882;2023-01-31T09:19:25;100127.56;;;3.24;73.80
71857;BME280;63344;46.980;28.882;2023-01-31T09:21:52;100134.53;;;3.25;73.92
71857;BME280;63344;46.980;28.882;2023-01-31T09:24:20;100133.56;;;3.29;73.44
71857;BME280;63344;46.980;28.882;2023-01-31T09:26:47;100126.53;;;3.31;73.68
71857;BME280;63344;46.980;28.882;2023-01-31T09:29:17;100118.56;;;3.35;73.54
71857;BME280;63344;46.980;28.882;2023-01-31T09:31:44;100135.03;;;3.45;73.37
71857;BME280;63344;46.980;28.882;2023-01-31T09:34:12;100115.75;;;3.48;72.92
71857;BME280;63344;46.980;28.882;2023-01-31T09:36:50;100111.22;;;3.57;72.47
71857;BME280;63344;46.980;28.882;2023-01-31T09:39:32;100101.19;;;3.78;72.14
71857;BME280;63344;46.980;28.882;2023-01-31T09:42:24;100114.81;;;3.97;70.96
71857;BME280;63344;46.980;28.882;2023-01-31T09:45:00;100115.34;;;4.14;69.97
71857;BME280;63344;46.980;28.882;2023-01-31T09:47:42;100111.50;;;4.29;69.85
71857;BME280;63344;46.980;28.882;2023-01-31T09:52:44;100103.09;;;4.55;69.18
71857;BME280;63344;46.980;28.882;2023-01-31T09:55:29;100109.78;;;4.69;68.22
71857;BME280;63344;46.980;28.882;2023-01-31T09:58:12;100111.56;;;4.67;66.98
71857;BME280;63344;46.980;28.882;2023-01-31T10:00:47;100103.72;;;4.65;67.15
71857;BME280;63344;46.980;28.882;2023-01-31T10:09:33;100095.19;;;4.55;66.85
71857;BME280;63344;46.980;28.882;2023-01-31T10:12:29;100103.19;;;4.49;66.96
71857;BME280;63344;46.980;28.882;2023-01-31T10:15:03;100116.41;;;4.46;67.14
71857;BME280;63344;46.980;28.882;2023-01-31T10:17:38;100108.53;;;4.46;67.55
71857;BME280;63344;46.980;28.882;2023-01-31T10:22:53;100111.28;;;4.42;67.47
71857;BME280;63344;46.980;28.882;2023-01-31T10:25:39;100112.97;;;4.44;67.45
71857;BME280;63344;46.980;28.882;2023-01-31T10:28:35;100112.03;;;4.47;67.30
71857;BME280;63344;46.980;28.882;2023-01-31T10:31:34;100111.34;;;4.37;67.21
71857;BME280;63344;46.980;28.882;2023-01-31T10:34:24;100120.13;;;4.37;66.99
71857;BME280;63344;46.980;28.882;2023-01-31T10:37:15;100105.19;;;4.39;66.34
71857;BME280;63344;46.980;28.882;2023-01-31T10:42:36;100110.13;;;4.53;65.35
71857;BME280;63344;46.980;28.882;2023-01-31T10:45:24;100096.28;;;4.83;65.44
71857;BME280;63344;46.980;28.882;2023-01-31T10:48:27;100080.06;;;5.01;64.64
71857;BME280;63344;46.980;28.882;2023-01-31T10:54:33;100085.59;;;5.25;63.70
71857;BME280;63344;46.980;28.882;2023-01-31T10:57:10;100077.91;;;5.51;62.14
71857;BME280;63344;46.980;28.882;2023-01-31T10:59:44;100084.53;;;5.66;62.19
71857;BME280;63344;46.980;28.882;2023-01-31T11:02:30;100090.56;;;5.70;61.96
71857;BME280;63344;46.980;28.882;2023-01-31T11:04:59;100090.16;;;5.52;61.37
71857;BME280;63344;46.980;28.882;2023-01-31T11:07:29;100088.25;;;5.25;61.83
71857;BME280;63344;46.980;28.882;2023-01-31T11:09:58;100086.31;;;4.97;62.04
71857;BME280;63344;46.980;28.882;2023-01-31T11:12:52;100095.78;;;4.67;63.05
71857;BME280;63344;46.980;28.882;2023-01-31T11:15:22;100107.56;;;4.50;63.68
71857;BME280;63344;46.980;28.882;2023-01-31T11:17:51;100091.06;;;4.44;63.89
71857;BME280;63344;46.980;28.882;2023-01-31T11:20:35;100102.34;;;4.49;64.41
71857;BME280;63344;46.980;28.882;2023-01-31T11:23:04;100094.16;;;4.61;64.40
71857;BME280;63344;46.980;28.882;2023-01-31T11:25:33;100099.06;;;4.76;64.15
71857;BME280;63344;46.980;28.882;2023-01-31T11:28:02;100089.22;;;4.85;64.18
71857;BME280;63344;46.980;28.882;2023-01-31T11:30:34;100091.63;;;4.95;63.65
71857;BME280;63344;46.980;28.882;2023-01-31T11:33:05;100080.34;;;4.90;63.67
71857;BME280;63344;46.980;28.882;2023-01-31T11:35:50;100082.00;;;4.93;63.82
71857;BME280;63344;46.980;28.882;2023-01-31T11:38:21;100100.59;;;4.85;63.84
71857;BME280;63344;46.980;28.882;2023-01-31T11:40:49;100084.34;;;4.69;64.19
71857;BME280;63344;46.980;28.882;2023-01-31T11:48:25;100099.72;;;4.47;65.06
71857;BME280;63344;46.980;28.882;2023-01-31T11:50:58;100086.13;;;4.28;65.56
71857;BME280;63344;46.980;28.882;2023-01-31T11:56:19;100097.63;;;4.24;66.64
71857;BME280;63344;46.980;28.882;2023-01-31T11:58:52;100094.22;;;4.19;66.83
71857;BME280;63344;46.980;28.882;2023-01-31T12:01:22;100104.03;;;4.11;67.00
71857;BME280;63344;46.980;28.882;2023-01-31T12:06:37;100101.53;;;4.05;67.85
71857;BME280;63344;46.980;28.882;2023-01-31T12:09:18;100112.88;;;4.07;67.60
71857;BME280;63344;46.980;28.882;2023-01-31T12:11:56;100107.59;;;4.08;67.94
71857;BME280;63344;46.980;28.882;2023-01-31T12:14:39;100111.97;;;4.08;68.21
71857;BME280;63344;46.980;28.882;2023-01-31T12:17:12;100105.91;;;4.04;68.22
71857;BME280;63344;46.980;28.882;2023-01-31T12:22:20;100102.16;;;4.17;68.32
71857;BME280;63344;46.980;28.882;2023-01-31T12:28:27;100102.78;;;4.27;67.98
71857;BME280;63344;46.980;28.882;2023-01-31T12:39:58;100116.63;;;3.93;69.14
71857;BME280;63344;46.980;28.882;2023-01-31T12:43:15;100114.06;;;3.92;69.47
71857;BME280;63344;46.980;28.882;2023-01-31T12:48:54;100130.00;;;3.81;70.10
71857;BME280;63344;46.980;28.882;2023-01-31T12:51:45;100135.34;;;3.78;69.59
71857;BME280;63344;46.980;28.882;2023-01-31T12:54:43;100135.31;;;3.79;69.73
71857;BME280;63344;46.980;28.882;2023-01-31T13:03:30;100132.94;;;4.09;69.32
71857;BME280;63344;46.980;28.882;2023-01-31T13:06:15;100133.75;;;4.14;69.04
71857;BME280;63344;46.980;28.882;2023-01-31T13:08:56;100135.44;;;4.17;69.01
71857;BME280;63344;46.980;28.882;2023-01-31T13:11:39;100140.75;;;4.15;68.63
71857;BME280;63344;46.980;28.882;2023-01-31T13:14:16;100139.97;;;4.09;68.97
71857;BME280;63344;46.980;28.882;2023-01-31T13:16:50;100133.97;;;4.04;68.87
71857;BME280;63344;46.980;28.882;2023-01-31T13:19:23;100145.34;;;4.03;69.13
71857;BME280;63344;46.980;28.882;2023-01-31T13:22:01;100130.66;;;3.94;69.63
71857;BME280;63344;46.980;28.882;2023-01-31T13:24:38;100134.19;;;3.91;69.38
71857;BME280;63344;46.980;28.882;2023-01-31T13:27:21;100136.88;;;3.90;69.40
71857;BME280;63344;46.980;28.882;2023-01-31T13:29:56;100142.94;;;3.92;69.49
71857;BME280;63344;46.980;28.882;2023-01-31T13:32:40;100142.81;;;3.99;69.73
71857;BME280;63344;46.980;28.882;2023-01-31T13:35:22;100138.50;;;3.95;69.27
71857;BME280;63344;46.980;28.882;2023-01-31T13:38:02;100144.66;;;3.93;69.44
71857;BME280;63344;46.980;28.882;2023-01-31T13:40:36;100143.84;;;3.89;69.76
71857;BME280;63344;46.980;28.882;2023-01-31T13:43:11;100135.34;;;3.78;70.02
71857;BME280;63344;46.980;28.882;2023-01-31T13:45:49;100140.56;;;3.79;70.35
71857;BME280;63344;46.980;28.882;2023-01-31T13:49:15;100145.72;;;3.84;70.87
71857;BME280;63344;46.980;28.882;2023-01-31T13:51:42;100154.41;;;3.88;70.49
71857;BME280;63344;46.980;28.882;2023-01-31T13:54:24;100154.56;;;3.80;70.73
71857;BME280;63344;46.980;28.882;2023-01-31T13:56:54;100155.47;;;3.77;71.09
71857;BME280;63344;46.980;28.882;2023-01-31T13:59:26;100146.78;;;3.74;71.58
71857;BME280;63344;46.980;28.882;2023-01-31T14:01:58;100141.66;;;3.68;71.63
71857;BME280;63344;46.980;28.882;2023-01-31T14:04:27;100152.91;;;3.73;71.81
71857;BME280;63344;46.980;28.882;2023-01-31T14:12:01;100170.50;;;3.69;72.02
71857;BME280;63344;46.980;28.882;2023-01-31T14:14:55;100167.03;;;3.67;72.16
71857;BME280;63344;46.980;28.882;2023-01-31T14:22:34;100167.19;;;3.59;72.56
71857;BME280;63344;46.980;28.882;2023-01-31T14:25:13;100173.31;;;3.58;72.76
71857;BME280;63344;46.980;28.882;2023-01-31T14:30:33;100182.94;;;3.59;73.61
71857;BME280;63344;46.980;28.882;2023-01-31T14:41:15;100184.84;;;3.50;73.77
71857;BME280;63344;46.980;28.882;2023-01-31T14:57:18;100199.06;;;3.36;75.01
71857;BME280;63344;46.980;28.882;2023-01-31T15:05:05;100214.84;;;3.33;75.26
71857;BME280;63344;46.980;28.882;2023-01-31T15:07:33;100220.06;;;3.35;74.83
71857;BME280;63344;46.980;28.882;2023-01-31T15:10:01;100216.63;;;3.31;75.57
71857;BME280;63344;46.980;28.882;2023-01-31T15:12:53;100207.88;;;3.34;75.73
71857;BME280;63344;46.980;28.882;2023-01-31T15:17:52;100222.03;;;3.22;75.85
71857;BME280;63344;46.980;28.882;2023-01-31T15:20:36;100227.28;;;3.24;75.77
71857;BME280;63344;46.980;28.882;2023-01-31T15:23:22;100216.88;;;3.16;76.06
71857;BME280;63344;46.980;28.882;2023-01-31T15:25:49;100215.94;;;3.22;76.33
71857;BME280;63344;46.980;28.882;2023-01-31T15:28:20;100231.63;;;3.25;76.42
71857;BME280;63344;46.980;28.882;2023-01-31T15:30:49;100229.91;;;3.22;76.23
71857;BME280;63344;46.980;28.882;2023-01-31T15:33:21;100231.75;;;3.15;76.67